Terminal Aerodrome Forecast
Issued by NWS

Home | Current Version | Previous Version | Graphics & Text | Print | Product List | Glossary On
Versions: 1 2 3 4 5 6 7 8 9 10 11 12 13 14 15 16
000
FTUS43 KGRB 221720
TAFMTW
TAF
KMTW 221720Z 2218/2318 32012KT P6SM -SHRA BKN012 OVC035
      TEMPO 2218/2221 4SM -SHRA BR SCT012 OVC035
     FM222100 30008KT P6SM -SHRA SCT025 OVC045
     FM230000 27005KT P6SM VCSH OVC060
     FM230300 27004KT P6SM SCT060 BKN120
     FM230600 24003KT P6SM SKC
     FM231300 21003KT P6SM SCT250
     FM231600 21008KT P6SM BKN120 BKN250=

USA.gov is the U.S. government's official web portal to all federal, state and local government web resources and services.